Ramona, Kansas
Current Conditions -  °F | °C
As of 5:53 PM on Thursday 27 Nov 2014 (Local Time) from KSLN Reporting Station
Clear Clear  
Wind Chill: 32°   Ceiling: Unl
Heat Index: 38°   Visibility: 10mi
Dew Point: 18°   Wind: 8mph
Humidity: 44%   Direction: 150°SSE
Pressure: 30.24"   Gusts: NA
Location:  38.6°N, 97.06°W
Report Text: KSLN 272353Z 15007KT 10SM CLR 03/M08 A3024 RMK AO2 SLP254 T00331078 10078 20022 58017
Loading
Personal Weather Stations






























Interactive Weather Map New forecast layout! Learn more

10-Day Weather Forecast

Advertisements
Track Severe Weather on mobile